Kakushin Maru — JM6667 — position and weather

sailwx.info

Track history (hours):
 
Tides and Currents Weather Stations Pressure Air Temp Water Temp Dewpoint Dewpoint Depression Visibility Wind Speed Wind Dir Waves Ship Positions

Kakushin Maru

Last reported at 2017-Sep-13 14:59 UTC. Time now 2017-Sep-24 19:15 UTC.
Position N 34°52' E 139°48'.
Warning: this ship's position is 11 days out of date.

Length 79 m; draft 4.2 m.

Type: Tanker. MMSI: 431602168.

Date/timePositionNaut miles runAvg speedWind from/ knotsBaromVisibWave heightAir tempDewpointWater temp
2017-Sep-13 14:59N 34°52' E 139°48'613.2
2017-Sep-13 14:30N 34°57' E 139°44'611.5
2017-Sep-13 14:00N 35°03' E 139°44'611.5
2017-Sep-13 13:30N 35°08' E 139°45'612.1
2017-Sep-13 13:00N 35°14' E 139°46'611.9
2017-Sep-13 12:30N 35°19' E 139°43'611.6
2017-Sep-13 12:00N 35°25' E 139°44'612.2
2017-Sep-13 11:30N 35°29' E 139°50'611.9
2017-Sep-13 11:00N 35°31' E 139°57'2 0.2
2017-Sep-13 00:28N 35°32' E 139°59'7 0.9
2017-Sep-12 16:37N 35°36' E 140°06'4 0.2
2017-Sep-11 22:53N 35°34' E 140°02'0 0.0
2017-Sep-11 22:29N 35°34' E 140°02'0 0.0
2017-Sep-11 20:24N 35°34' E 140°02'0 0.0
2017-Sep-11 19:54N 35°34' E 140°02'0 0.0
2017-Sep-11 19:09N 35°34' E 140°02'0 0.0
2017-Sep-11 18:57N 35°34' E 140°02'0 0.0
2017-Sep-11 18:21N 35°34' E 140°02'0 0.0
2017-Sep-11 17:48N 35°34' E 140°02'0 0.0
2017-Sep-11 17:27N 35°34' E 140°02'1 0.2
2017-Sep-11 14:50N 35°33' E 140°01'411.6
2017-Sep-11 14:29N 35°31' E 139°57'611.8
2017-Sep-11 14:00N 35°28' E 139°51'611.9
2017-Sep-11 13:30N 35°24' E 139°46'611.4
2017-Sep-11 13:00N 35°18' E 139°44'611.4
2017-Sep-11 12:30N 35°13' E 139°47'612.2
2017-Sep-11 12:00N 35°07' E 139°45'612.6
2017-Sep-11 11:30N 35°03' E 139°39'613.0
2017-Sep-11 11:00N 34°59' E 139°33'3 0.1
2017-Sep-10 12:02N 34°60' E 139°30'210.2
2017-Sep-10 11:51N 35°01' E 139°31'410.1
2017-Sep-10 11:30N 35°03' E 139°35'510.3
2017-Sep-10 11:00N 35°06' E 139°40'510.2
2017-Sep-10 10:30N 35°09' E 139°45'510.9
2017-Sep-10 10:00N 35°14' E 139°46'510.6
2017-Sep-10 09:31N 35°19' E 139°43'510.9
2017-Sep-10 09:00N 35°24' E 139°40'2 3.4
2017-Sep-10 08:31N 35°25' E 139°38'0 0.0
2017-Sep-10 08:00N 35°25' E 139°38'0 0.0
2017-Sep-10 07:30N 35°25' E 139°38'0 0.0
2017-Sep-10 07:00N 35°25' E 139°38'0 0.0
2017-Sep-10 06:30N 35°25' E 139°38'0 0.0
2017-Sep-10 06:00N 35°25' E 139°38'0 0.0
2017-Sep-10 05:30N 35°24' E 139°38'0 0.0
2017-Sep-10 05:00N 35°25' E 139°38'0 0.0
2017-Sep-10 04:30N 35°25' E 139°38'4 7.6
2017-Sep-10 04:00N 35°25' E 139°43'611.9
2017-Sep-10 03:30N 35°28' E 139°49'611.9
2017-Sep-10 03:00N 35°31' E 139°55'610.7
2017-Sep-10 02:29N 35°30' E 140°02'3 0.8
2017-Sep-09 22:31N 35°32' E 139°59'0 1.4
2017-Sep-09 22:30N 35°32' E 139°59'0 0.1
2017-Sep-09 21:28N 35°32' E 139°59'0 0.0
2017-Sep-09 20:55N 35°32' E 139°59'0 0.0
2017-Sep-09 20:30N 35°32' E 139°59'4 7.3
2017-Sep-09 20:00N 35°30' E 139°55'612.1
2017-Sep-09 19:31N 35°27' E 139°49'612.1
2017-Sep-09 19:01N 35°22' E 139°45'611.6
2017-Sep-09 18:31N 35°16' E 139°46'611.7
2017-Sep-09 18:01N 35°10' E 139°46'611.2
2017-Sep-09 17:31N 35°05' E 139°43'612.1
2017-Sep-09 17:01N 35°01' E 139°37'713.6
2017-Sep-09 16:30N 34°57' E 139°31'2 0.1
2017-Sep-08 06:55N 34°58' E 139°31'511.7
2017-Sep-08 06:30N 35°02' E 139°35'612.6
2017-Sep-08 06:00N 35°06' E 139°41'612.7
2017-Sep-08 05:30N 35°11' E 139°45'611.2
2017-Sep-08 05:00N 35°17' E 139°45'611.4
2017-Sep-08 04:30N 35°22' E 139°42'611.8
2017-Sep-08 04:00N 35°27' E 139°47'612.7
2017-Sep-08 03:30N 35°30' E 139°53'5 7.6
2017-Sep-08 02:49N 35°31' E 139°59'0 0.0
2017-Sep-08 01:37N 35°31' E 139°59'0 0.0
2017-Sep-08 01:28N 35°31' E 139°59'0 0.0
2017-Sep-08 00:49N 35°31' E 139°59'0 0.0
2017-Sep-08 00:28N 35°31' E 139°59'0 0.0
2017-Sep-07 23:58N 35°31' E 139°59'0 0.0
2017-Sep-07 23:04N 35°31' E 139°59'0 0.0
2017-Sep-07 22:55N 35°31' E 139°59'0 0.0
2017-Sep-07 22:25N 35°31' E 139°59'0 0.1
2017-Sep-07 21:52N 35°31' E 139°59'7 6.6
2017-Sep-07 20:49N 35°36' E 140°06'0 0.0
2017-Sep-07 20:29N 35°36' E 140°06'0 0.0
2017-Sep-07 19:56N 35°36' E 140°06'0 0.0
2017-Sep-07 19:29N 35°36' E 140°06'0 0.0
2017-Sep-07 18:47N 35°36' E 140°06'0 0.0
2017-Sep-07 18:29N 35°36' E 140°06'0 0.0
2017-Sep-07 17:56N 35°36' E 140°06'0 0.0
2017-Sep-07 17:29N 35°36' E 140°06'0 0.0
2017-Sep-07 16:59N 35°36' E 140°06'0 0.0
2017-Sep-07 16:29N 35°36' E 140°06'0 0.0
2017-Sep-07 15:56N 35°36' E 140°06'0 0.0
2017-Sep-07 15:29N 35°36' E 140°06'0 0.0
2017-Sep-07 14:59N 35°36' E 140°06'0 0.0
2017-Sep-07 14:29N 35°36' E 140°06'0 0.0
2017-Sep-07 13:59N 35°36' E 140°06'0 0.0
2017-Sep-07 13:29N 35°36' E 140°06'0 0.0
2017-Sep-07 12:53N 35°36' E 140°06'0 0.0
2017-Sep-07 12:26N 35°36' E 140°06'0 0.0
2017-Sep-07 11:59N 35°36' E 140°06'0 0.0
2017-Sep-07 11:17N 35°36' E 140°06'0 0.0
2017-Sep-07 10:26N 35°36' E 140°06'0 0.0
2017-Sep-07 09:59N 35°36' E 140°06'0 0.0
2017-Sep-07 05:05N 35°36' E 140°06'0 0.0
2017-Sep-07 04:44N 35°36' E 140°06'0 0.0
2017-Sep-07 04:23N 35°36' E 140°06'0 0.0
2017-Sep-07 03:56N 35°36' E 140°06'0 0.0
2017-Sep-07 03:26N 35°36' E 140°06'0 0.0
2017-Sep-07 02:50N 35°36' E 140°06'0 0.0
2017-Sep-07 02:23N 35°36' E 140°06'0 0.0
2017-Sep-07 01:59N 35°36' E 140°06'0 0.0
2017-Sep-07 01:23N 35°36' E 140°06'4 3.8
2017-Sep-07 00:27N 35°34' E 140°02'4 8.0
2017-Sep-06 23:59N 35°32' E 139°59'1 2.1
2017-Sep-06 23:30N 35°31' E 139°58'0 0.0
2017-Sep-06 22:48N 35°31' E 139°58'0 0.0
2017-Sep-06 22:27N 35°31' E 139°58'0 0.1
2017-Sep-06 22:00N 35°31' E 139°58'0 0.1
2017-Sep-06 21:30N 35°31' E 139°58'0 0.1
2017-Sep-06 21:00N 35°31' E 139°58'0 0.0
2017-Sep-06 20:30N 35°31' E 139°58'0 0.0
2017-Sep-06 19:51N 35°31' E 139°58'0 0.0
2017-Sep-06 19:30N 35°31' E 139°58'0 0.0
2017-Sep-06 18:38N 35°31' E 139°58'0 0.0
2017-Sep-06 18:29N 35°31' E 139°58'0 0.0
2017-Sep-06 17:59N 35°31' E 139°58'0 0.0
2017-Sep-06 17:29N 35°31' E 139°58'0 0.0
2017-Sep-06 16:59N 35°31' E 139°58'0 0.0
2017-Sep-06 16:20N 35°31' E 139°58'0 0.0
2017-Sep-06 15:50N 35°31' E 139°58'0 0.0
2017-Sep-06 15:26N 35°31' E 139°58'0 0.1
2017-Sep-06 14:59N 35°31' E 139°58'0 0.0
2017-Sep-06 13:44N 35°31' E 139°58'0 0.0
2017-Sep-06 13:17N 35°31' E 139°58'0 0.0
2017-Sep-06 12:53N 35°31' E 139°58'0 0.0
2017-Sep-06 12:26N 35°31' E 139°58'0 0.0
2017-Sep-06 09:26N 35°31' E 139°58'0 0.0
2017-Sep-06 08:56N 35°31' E 139°58'0 0.0
2017-Sep-06 08:02N 35°31' E 139°58'0 0.0
2017-Sep-06 07:59N 35°31' E 139°58'0 0.0
2017-Sep-06 06:35N 35°31' E 139°58'0 0.0
2017-Sep-06 06:23N 35°31' E 139°58'0 0.0
2017-Sep-06 05:53N 35°31' E 139°58'0 0.0
2017-Sep-06 05:29N 35°31' E 139°58'0 0.0
2017-Sep-06 04:41N 35°31' E 139°58'0 0.0
2017-Sep-06 04:29N 35°31' E 139°58'0 0.0
2017-Sep-06 03:59N 35°31' E 139°58'0 0.0
2017-Sep-06 02:14N 35°31' E 139°58'0 0.0
2017-Sep-06 01:59N 35°31' E 139°58'0 0.0
2017-Sep-05 23:26N 35°31' E 139°58'0 0.0
2017-Sep-05 21:59N 35°31' E 139°58'0 0.0
2017-Sep-05 20:53N 35°31' E 139°58'0 0.0
2017-Sep-05 18:05N 35°31' E 139°58'0 0.0
2017-Sep-05 17:44N 35°31' E 139°58'0 0.0
2017-Sep-05 17:20N 35°31' E 139°58'0 0.0
2017-Sep-05 15:29N 35°31' E 139°58'0 0.0
2017-Sep-05 10:23N 35°31' E 139°58'2 5.9
2017-Sep-05 10:01N 35°30' E 139°56'612.2
2017-Sep-05 09:30N 35°27' E 139°49'611.8
2017-Sep-05 09:01N 35°22' E 139°45'510.8
2017-Sep-05 08:30N 35°16' E 139°46'611.8
2017-Sep-05 08:00N 35°11' E 139°47'612.1
2017-Sep-05 07:31N 35°06' E 139°43'712.9
2017-Sep-05 07:00N 35°01' E 139°37'  
Track history (hours):
 
Tides and Currents Weather Stations Pressure Air Temp Water Temp Dewpoint Dewpoint Depression Visibility Wind Speed Wind Dir Waves Ship Positions

Kakushin Maru

Last reported at 2017-Sep-13 14:59 UTC. Time now 2017-Sep-24 19:15 UTC.
Position N 34°52' E 139°48'.
Warning: this ship's position is 11 days out of date.

Length 79 m; draft 4.2 m.

Type: Tanker. MMSI: 431602168.

Date/timePositionNaut miles runAvg speedWind from/ knotsBaromVisibWave heightAir tempDewpointWater temp
2017-Sep-13 14:59N 34°52' E 139°48'613.2
2017-Sep-13 14:30N 34°57' E 139°44'611.5
2017-Sep-13 14:00N 35°03' E 139°44'611.5
2017-Sep-13 13:30N 35°08' E 139°45'612.1
2017-Sep-13 13:00N 35°14' E 139°46'611.9
2017-Sep-13 12:30N 35°19' E 139°43'611.6
2017-Sep-13 12:00N 35°25' E 139°44'612.2
2017-Sep-13 11:30N 35°29' E 139°50'611.9
2017-Sep-13 11:00N 35°31' E 139°57'2 0.2
2017-Sep-13 00:28N 35°32' E 139°59'7 0.9
2017-Sep-12 16:37N 35°36' E 140°06'4 0.2
2017-Sep-11 22:53N 35°34' E 140°02'0 0.0
2017-Sep-11 22:29N 35°34' E 140°02'0 0.0
2017-Sep-11 20:24N 35°34' E 140°02'0 0.0
2017-Sep-11 19:54N 35°34' E 140°02'0 0.0
2017-Sep-11 19:09N 35°34' E 140°02'0 0.0
2017-Sep-11 18:57N 35°34' E 140°02'0 0.0
2017-Sep-11 18:21N 35°34' E 140°02'0 0.0
2017-Sep-11 17:48N 35°34' E 140°02'0 0.0
2017-Sep-11 17:27N 35°34' E 140°02'1 0.2
2017-Sep-11 14:50N 35°33' E 140°01'411.6
2017-Sep-11 14:29N 35°31' E 139°57'611.8
2017-Sep-11 14:00N 35°28' E 139°51'611.9
2017-Sep-11 13:30N 35°24' E 139°46'611.4
2017-Sep-11 13:00N 35°18' E 139°44'611.4
2017-Sep-11 12:30N 35°13' E 139°47'612.2
2017-Sep-11 12:00N 35°07' E 139°45'612.6
2017-Sep-11 11:30N 35°03' E 139°39'613.0
2017-Sep-11 11:00N 34°59' E 139°33'3 0.1
2017-Sep-10 12:02N 34°60' E 139°30'210.2
2017-Sep-10 11:51N 35°01' E 139°31'410.1
2017-Sep-10 11:30N 35°03' E 139°35'510.3
2017-Sep-10 11:00N 35°06' E 139°40'510.2
2017-Sep-10 10:30N 35°09' E 139°45'510.9
2017-Sep-10 10:00N 35°14' E 139°46'510.6
2017-Sep-10 09:31N 35°19' E 139°43'510.9
2017-Sep-10 09:00N 35°24' E 139°40'2 3.4
2017-Sep-10 08:31N 35°25' E 139°38'0 0.0
2017-Sep-10 08:00N 35°25' E 139°38'0 0.0
2017-Sep-10 07:30N 35°25' E 139°38'0 0.0
2017-Sep-10 07:00N 35°25' E 139°38'0 0.0
2017-Sep-10 06:30N 35°25' E 139°38'0 0.0
2017-Sep-10 06:00N 35°25' E 139°38'0 0.0
2017-Sep-10 05:30N 35°24' E 139°38'0 0.0
2017-Sep-10 05:00N 35°25' E 139°38'0 0.0
2017-Sep-10 04:30N 35°25' E 139°38'4 7.6
2017-Sep-10 04:00N 35°25' E 139°43'611.9
2017-Sep-10 03:30N 35°28' E 139°49'611.9
2017-Sep-10 03:00N 35°31' E 139°55'610.7
2017-Sep-10 02:29N 35°30' E 140°02'3 0.8
2017-Sep-09 22:31N 35°32' E 139°59'0 1.4
2017-Sep-09 22:30N 35°32' E 139°59'0 0.1
2017-Sep-09 21:28N 35°32' E 139°59'0 0.0
2017-Sep-09 20:55N 35°32' E 139°59'0 0.0
2017-Sep-09 20:30N 35°32' E 139°59'4 7.3
2017-Sep-09 20:00N 35°30' E 139°55'612.1
2017-Sep-09 19:31N 35°27' E 139°49'612.1
2017-Sep-09 19:01N 35°22' E 139°45'611.6
2017-Sep-09 18:31N 35°16' E 139°46'611.7
2017-Sep-09 18:01N 35°10' E 139°46'611.2
2017-Sep-09 17:31N 35°05' E 139°43'612.1
2017-Sep-09 17:01N 35°01' E 139°37'713.6
2017-Sep-09 16:30N 34°57' E 139°31'2 0.1
2017-Sep-08 06:55N 34°58' E 139°31'511.7
2017-Sep-08 06:30N 35°02' E 139°35'612.6
2017-Sep-08 06:00N 35°06' E 139°41'612.7
2017-Sep-08 05:30N 35°11' E 139°45'611.2
2017-Sep-08 05:00N 35°17' E 139°45'611.4
2017-Sep-08 04:30N 35°22' E 139°42'611.8
2017-Sep-08 04:00N 35°27' E 139°47'612.7
2017-Sep-08 03:30N 35°30' E 139°53'5 7.6
2017-Sep-08 02:49N 35°31' E 139°59'0 0.0
2017-Sep-08 01:37N 35°31' E 139°59'0 0.0
2017-Sep-08 01:28N 35°31' E 139°59'0 0.0
2017-Sep-08 00:49N 35°31' E 139°59'0 0.0
2017-Sep-08 00:28N 35°31' E 139°59'0 0.0
2017-Sep-07 23:58N 35°31' E 139°59'0 0.0
2017-Sep-07 23:04N 35°31' E 139°59'0 0.0
2017-Sep-07 22:55N 35°31' E 139°59'0 0.0
2017-Sep-07 22:25N 35°31' E 139°59'0 0.1
2017-Sep-07 21:52N 35°31' E 139°59'7 6.6
2017-Sep-07 20:49N 35°36' E 140°06'0 0.0
2017-Sep-07 20:29N 35°36' E 140°06'0 0.0
2017-Sep-07 19:56N 35°36' E 140°06'0 0.0
2017-Sep-07 19:29N 35°36' E 140°06'0 0.0
2017-Sep-07 18:47N 35°36' E 140°06'0 0.0
2017-Sep-07 18:29N 35°36' E 140°06'0 0.0
2017-Sep-07 17:56N 35°36' E 140°06'0 0.0
2017-Sep-07 17:29N 35°36' E 140°06'0 0.0
2017-Sep-07 16:59N 35°36' E 140°06'0 0.0
2017-Sep-07 16:29N 35°36' E 140°06'0 0.0
2017-Sep-07 15:56N 35°36' E 140°06'0 0.0
2017-Sep-07 15:29N 35°36' E 140°06'0 0.0
2017-Sep-07 14:59N 35°36' E 140°06'0 0.0
2017-Sep-07 14:29N 35°36' E 140°06'0 0.0
2017-Sep-07 13:59N 35°36' E 140°06'0 0.0
2017-Sep-07 13:29N 35°36' E 140°06'0 0.0
2017-Sep-07 12:53N 35°36' E 140°06'0 0.0
2017-Sep-07 12:26N 35°36' E 140°06'0 0.0
2017-Sep-07 11:59N 35°36' E 140°06'0 0.0
2017-Sep-07 11:17N 35°36' E 140°06'0 0.0
2017-Sep-07 10:26N 35°36' E 140°06'0 0.0
2017-Sep-07 09:59N 35°36' E 140°06'0 0.0
2017-Sep-07 05:05N 35°36' E 140°06'0 0.0
2017-Sep-07 04:44N 35°36' E 140°06'0 0.0
2017-Sep-07 04:23N 35°36' E 140°06'0 0.0
2017-Sep-07 03:56N 35°36' E 140°06'0 0.0
2017-Sep-07 03:26N 35°36' E 140°06'0 0.0
2017-Sep-07 02:50N 35°36' E 140°06'0 0.0
2017-Sep-07 02:23N 35°36' E 140°06'0 0.0
2017-Sep-07 01:59N 35°36' E 140°06'0 0.0
2017-Sep-07 01:23N 35°36' E 140°06'4 3.8
2017-Sep-07 00:27N 35°34' E 140°02'4 8.0
2017-Sep-06 23:59N 35°32' E 139°59'1 2.1
2017-Sep-06 23:30N 35°31' E 139°58'0 0.0
2017-Sep-06 22:48N 35°31' E 139°58'0 0.0
2017-Sep-06 22:27N 35°31' E 139°58'0 0.1
2017-Sep-06 22:00N 35°31' E 139°58'0 0.1
2017-Sep-06 21:30N 35°31' E 139°58'0 0.1
2017-Sep-06 21:00N 35°31' E 139°58'0 0.0
2017-Sep-06 20:30N 35°31' E 139°58'0 0.0
2017-Sep-06 19:51N 35°31' E 139°58'0 0.0
2017-Sep-06 19:30N 35°31' E 139°58'0 0.0
2017-Sep-06 18:38N 35°31' E 139°58'0 0.0
2017-Sep-06 18:29N 35°31' E 139°58'0 0.0
2017-Sep-06 17:59N 35°31' E 139°58'0 0.0
2017-Sep-06 17:29N 35°31' E 139°58'0 0.0
2017-Sep-06 16:59N 35°31' E 139°58'0 0.0
2017-Sep-06 16:20N 35°31' E 139°58'0 0.0
2017-Sep-06 15:50N 35°31' E 139°58'0 0.0
2017-Sep-06 15:26N 35°31' E 139°58'0 0.1
2017-Sep-06 14:59N 35°31' E 139°58'0 0.0
2017-Sep-06 13:44N 35°31' E 139°58'0 0.0
2017-Sep-06 13:17N 35°31' E 139°58'0 0.0
2017-Sep-06 12:53N 35°31' E 139°58'0 0.0
2017-Sep-06 12:26N 35°31' E 139°58'0 0.0
2017-Sep-06 09:26N 35°31' E 139°58'0 0.0
2017-Sep-06 08:56N 35°31' E 139°58'0 0.0
2017-Sep-06 08:02N 35°31' E 139°58'0 0.0
2017-Sep-06 07:59N 35°31' E 139°58'0 0.0
2017-Sep-06 06:35N 35°31' E 139°58'0 0.0
2017-Sep-06 06:23N 35°31' E 139°58'0 0.0
2017-Sep-06 05:53N 35°31' E 139°58'0 0.0
2017-Sep-06 05:29N 35°31' E 139°58'0 0.0
2017-Sep-06 04:41N 35°31' E 139°58'0 0.0
2017-Sep-06 04:29N 35°31' E 139°58'0 0.0
2017-Sep-06 03:59N 35°31' E 139°58'0 0.0
2017-Sep-06 02:14N 35°31' E 139°58'0 0.0
2017-Sep-06 01:59N 35°31' E 139°58'0 0.0
2017-Sep-05 23:26N 35°31' E 139°58'0 0.0
2017-Sep-05 21:59N 35°31' E 139°58'0 0.0
2017-Sep-05 20:53N 35°31' E 139°58'0 0.0
2017-Sep-05 18:05N 35°31' E 139°58'0 0.0
2017-Sep-05 17:44N 35°31' E 139°58'0 0.0
2017-Sep-05 17:20N 35°31' E 139°58'0 0.0
2017-Sep-05 15:29N 35°31' E 139°58'0 0.0
2017-Sep-05 10:23N 35°31' E 139°58'2 5.9
2017-Sep-05 10:01N 35°30' E 139°56'612.2
2017-Sep-05 09:30N 35°27' E 139°49'611.8
2017-Sep-05 09:01N 35°22' E 139°45'510.8
2017-Sep-05 08:30N 35°16' E 139°46'611.8
2017-Sep-05 08:00N 35°11' E 139°47'612.1
2017-Sep-05 07:31N 35°06' E 139°43'712.9
2017-Sep-05 07:00N 35°01' E 139°37'  

Dump ship's entire track history